ROMMA est une association bénévole à but non lucratif. Votre soutien est indispensable : ADHERER à ROMMA ou FAIRE un DON

Chamrousse - (38, Isère)

Massif de Belledonne (1800 m)   Longitude: 05° 52' 28" E   Latitude: 45° 06' 28" N Station partenaire n°3
 

Détail journalier du     <<     >>

Température Precipitation Humidité Pression Vent Dir Rafale Dir. rafale
Heure (°C) (mm) (%) (hPa) (km/h) (km/h)
01:00 7.108510128N16NNO
02:00 6.807810128N16N
03:00 6.607810111N10N
04:00 6.408210117N15NNE
05:00 6.308110105NNE13NNE
06:00 5.907710101NNE10NNE
07:00 6.307310115NNE13NNE
08:00 7.305810115NNE11NNE
09:00 8.705410111NNE10NNE
10:00 8.406210113NNE16NNE
11:00 9.406810115N15N
12:00 9.407810106NO18NO
13:00 9.907110104ONO15ONO
14:00 10.906410103ONO16O
15:00 10.706810106ONO16ONO
16:00 11.206910098NO21ONO
17:00 10.407310108NO21ONO
18:00 9.308010106ONO18ONO
19:00 9.108210103ONO11ONO
20:00 9.107610104ONO13ONO
21:00 8.507710103ONO11ONO
22:00 8.207910104ONO11ONO
23:00 8.106810114ONO13O
minuit 7.906310119OSO13O

Graphique du 09-05-2008

 

Serveur OMMA